Time;durP1;ratioP1;P1;durP2;ratioP2;P2;SDS_P1;SDS_P2;PMS_P1;PMS_P2;Temp;Humidity;BMP_temperature;BMP_pressure;BME280_temperature;BME280_humidity;BME280_pressure;Samples;Min_cycle;Max_cycle;Signal;HPM_P1;HPM_P2
2021/12/19 00:00:34;;;;;;;20.23;8.60;;;3.40;99.90;;;;;;4978798;28;90010;-77
2021/12/19 00:03:19;;;;;;;17.23;8.02;;;3.40;99.90;;;;;;4960880;28;91911;-77
2021/12/19 00:08:49;;;;;;;16.63;8.13;;;3.40;99.90;;;;;;4979388;28;89331;-77
2021/12/19 00:11:15;;;;;;;13.35;7.45;;;3.40;99.90;;;;;;4979028;28;89479;-77
2021/12/19 00:13:41;;;;;;;16.42;7.70;;;3.40;99.90;;;;;;4960620;28;91351;-78
2021/12/19 00:16:07;;;;;;;19.45;8.75;;;3.40;99.90;;;;;;4978173;28;90126;-77
2021/12/19 00:18:33;;;;;;;16.50;8.25;;;3.40;99.90;;;;;;4978458;28;89696;-77
2021/12/19 00:20:59;;;;;;;13.57;6.97;;;3.40;99.90;;;;;;4978089;28;90060;-77
2021/12/19 00:23:25;;;;;;;17.35;8.27;;;3.40;99.90;;;;;;4978503;28;89791;-77
2021/12/19 00:25:51;;;;;;;15.20;8.85;;;3.30;99.90;;;;;;4978409;28;89456;-77
2021/12/19 00:28:16;;;;;;;15.52;8.25;;;3.30;99.90;;;;;;4978523;28;89698;-78
2021/12/19 05:16:00;;;;;;;6.97;3.70;;;3.30;99.90;;;;;;4958767;28;89227;-74
2021/12/19 05:18:30;;;;;;;7.00;3.53;;;3.20;99.90;;;;;;4958679;28;89901;-75
2021/12/19 05:21:03;;;;;;;7.10;3.78;;;3.20;99.90;;;;;;4957848;28;90066;-74
2021/12/19 05:25:58;;;;;;;7.93;3.95;;;3.20;99.90;;;;;;4957654;28;90273;-75
2021/12/19 05:28:24;;;;;;;9.18;4.80;;;3.20;99.90;;;;;;4957945;28;90028;-74
2021/12/19 05:30:49;;;;;;;8.52;4.00;;;3.20;99.90;;;;;;4957654;28;91089;-75
2021/12/19 05:33:16;;;;;;;8.30;4.43;;;3.20;99.90;;;;;;4957947;28;89287;-74
2021/12/19 05:46:27;;;;;;;6.93;3.90;;;3.00;99.90;;;;;;4958339;28;89471;-74
2021/12/19 05:48:53;;;;;;;8.57;4.40;;;3.00;99.90;;;;;;4957939;28;89600;-74
2021/12/19 05:51:19;;;;;;;7.18;4.60;;;3.00;99.90;;;;;;4956997;28;91293;-74
2021/12/19 05:53:45;;;;;;;9.48;5.20;;;3.00;99.90;;;;;;4939738;28;91679;-74
2021/12/19 05:56:10;;;;;;;9.02;4.68;;;3.00;99.90;;;;;;4958117;28;89194;-74
2021/12/19 05:58:36;;;;;;;8.73;5.07;;;3.00;99.90;;;;;;4957729;28;90349;-74
2021/12/19 06:01:03;;;;;;;12.75;6.18;;;3.00;99.90;;;;;;4957150;28;89977;-74
2021/12/19 06:03:28;;;;;;;10.50;5.30;;;3.00;99.90;;;;;;4957522;28;89714;-74
2021/12/19 06:05:54;;;;;;;10.82;5.13;;;3.00;99.90;;;;;;4940036;28;89276;-74
2021/12/19 06:08:19;;;;;;;9.80;5.43;;;3.10;99.90;;;;;;4957900;28;89115;-74
2021/12/19 06:10:45;;;;;;;11.07;4.78;;;3.00;99.90;;;;;;4939776;28;92756;-74
2021/12/19 06:13:10;;;;;;;10.90;5.45;;;3.00;99.90;;;;;;4941005;28;92150;-75
2021/12/19 06:15:36;;;;;;;8.88;4.22;;;3.00;99.90;;;;;;4960316;28;90294;-74
2021/12/19 06:18:03;;;;;;;9.10;4.80;;;3.00;99.90;;;;;;4961015;28;89565;-74
2021/12/19 06:20:31;;;;;;;6.32;3.83;;;3.00;99.90;;;;;;4960609;28;89493;-75
2021/12/19 06:22:57;;;;;;;9.02;4.35;;;2.90;99.90;;;;;;4944558;28;92144;-74
2021/12/19 06:25:23;;;;;;;6.47;3.72;;;2.90;99.90;;;;;;4962660;28;89183;-74
2021/12/19 06:27:48;;;;;;;8.07;4.97;;;3.00;99.90;;;;;;4960741;28;89212;-74
2021/12/19 06:30:14;;;;;;;6.75;4.10;;;3.00;99.90;;;;;;4960319;28;89965;-74
2021/12/19 06:32:40;;;;;;;6.90;3.92;;;3.00;99.90;;;;;;4961176;28;89096;-74
2021/12/19 06:35:11;;;;;;;7.07;3.80;;;3.00;99.90;;;;;;4942828;28;89442;-76
2021/12/19 06:37:38;;;;;;;5.78;3.58;;;3.00;99.90;;;;;;4961085;28;89163;-74
2021/12/19 06:40:09;;;;;;;7.53;3.88;;;3.00;99.90;;;;;;4942365;28;94112;-74
2021/12/19 06:42:35;;;;;;;7.18;4.07;;;3.00;99.90;;;;;;4959969;28;89619;-75
2021/12/19 06:45:01;;;;;;;7.25;3.95;;;3.10;99.90;;;;;;4959917;28;89693;-74
2021/12/19 06:47:26;;;;;;;7.13;3.47;;;3.10;99.90;;;;;;4960327;28;89655;-74
2021/12/19 06:49:52;;;;;;;5.70;3.60;;;3.10;99.90;;;;;;4960327;28;90124;-74
2021/12/19 06:52:17;;;;;;;6.53;3.53;;;3.10;99.90;;;;;;4959766;28;90751;-75
2021/12/19 06:54:43;;;;;;;6.78;3.60;;;3.10;99.90;;;;;;4960492;28;89304;-74
2021/12/19 06:57:08;;;;;;;6.07;3.75;;;3.20;99.90;;;;;;4960444;28;89165;-74
2021/12/19 06:59:34;;;;;;;6.60;3.55;;;3.20;99.90;;;;;;4960160;28;89192;-74
2021/12/19 07:01:59;;;;;;;6.70;3.90;;;3.20;99.90;;;;;;4960016;28;91114;-74
2021/12/19 07:04:25;;;;;;;7.20;3.88;;;3.20;99.90;;;;;;4959621;28;90300;-75
2021/12/19 07:06:50;;;;;;;6.60;4.10;;;3.20;99.90;;;;;;4960150;28;89289;-75
2021/12/19 07:09:16;;;;;;;7.55;4.22;;;3.20;99.90;;;;;;4960109;28;90027;-74
2021/12/19 07:11:43;;;;;;;6.43;3.47;;;3.20;99.90;;;;;;4941890;28;91990;-74
2021/12/19 07:14:08;;;;;;;7.45;4.70;;;3.20;99.90;;;;;;4960539;28;89244;-74
2021/12/19 07:16:34;;;;;;;5.85;3.70;;;3.30;99.90;;;;;;4960095;28;89298;-74
2021/12/19 07:18:59;;;;;;;8.95;4.50;;;3.30;99.90;;;;;;4960204;28;90359;-74
2021/12/19 07:21:25;;;;;;;7.45;4.10;;;3.30;99.90;;;;;;4960263;28;89130;-75
2021/12/19 07:23:51;;;;;;;8.02;4.65;;;3.30;99.90;;;;;;4959652;28;89238;-74
2021/12/19 07:26:17;;;;;;;6.65;4.25;;;3.30;99.90;;;;;;4959191;28;89693;-74
2021/12/19 07:28:45;;;;;;;6.47;4.18;;;3.30;99.90;;;;;;4959493;28;91067;-74
2021/12/19 07:31:11;;;;;;;7.40;4.60;;;3.30;99.90;;;;;;4959682;28;89959;-74
2021/12/19 07:33:37;;;;;;;7.00;4.15;;;3.30;99.90;;;;;;4959784;28;89248;-74
2021/12/19 07:36:03;;;;;;;8.00;4.40;;;3.30;99.90;;;;;;4941703;28;91939;-74
2021/12/19 07:38:37;;;;;;;8.60;5.07;;;3.30;99.90;;;;;;4941788;28;91877;-74
2021/12/19 07:41:03;;;;;;;9.65;4.57;;;3.30;99.90;;;;;;4941811;28;93132;-74
2021/12/19 07:43:29;;;;;;;8.52;4.63;;;3.40;99.90;;;;;;4942186;28;89131;-75
2021/12/19 07:45:55;;;;;;;8.32;5.05;;;3.30;99.90;;;;;;4942002;28;91483;-74
2021/12/19 07:48:20;;;;;;;9.15;5.38;;;3.40;99.90;;;;;;4959487;28;89221;-74
2021/12/19 07:50:46;;;;;;;8.38;5.03;;;3.40;99.90;;;;;;4959255;28;91448;-74
2021/12/19 07:53:12;;;;;;;8.20;4.70;;;3.40;99.90;;;;;;4959161;28;90206;-75
2021/12/19 07:55:37;;;;;;;7.55;4.95;;;3.40;99.90;;;;;;4959160;28;89946;-74
2021/12/19 07:58:03;;;;;;;7.90;5.38;;;3.40;99.90;;;;;;4941519;28;92311;-74
2021/12/19 08:00:29;;;;;;;10.57;5.68;;;3.50;99.90;;;;;;4958692;28;89256;-74
2021/12/19 08:02:55;;;;;;;7.68;5.10;;;3.50;99.90;;;;;;4959675;28;89480;-74
2021/12/19 08:05:21;;;;;;;11.00;6.25;;;3.50;99.90;;;;;;4959094;28;90212;-74
2021/12/19 08:07:49;;;;;;;8.35;5.47;;;3.50;99.90;;;;;;4959163;28;89322;-75
2021/12/19 08:12:44;;;;;;;8.35;5.25;;;3.50;99.90;;;;;;4953554;28;89407;-74
2021/12/19 08:15:11;;;;;;;13.45;6.43;;;3.60;99.90;;;;;;4946153;28;91568;-74
2021/12/19 08:17:37;;;;;;;10.48;6.57;;;3.60;99.90;;;;;;4950669;28;91027;-74
2021/12/19 08:20:05;;;;;;;10.65;5.75;;;3.60;99.90;;;;;;4930062;28;93111;-74
2021/12/19 08:22:32;;;;;;;10.90;6.20;;;3.70;99.90;;;;;;4941920;28;89783;-74
2021/12/19 08:24:57;;;;;;;9.73;6.05;;;3.60;99.90;;;;;;4921550;28;92645;-75
2021/12/19 08:27:24;;;;;;;10.30;6.90;;;3.70;99.90;;;;;;4939378;28;90150;-74
2021/12/19 08:29:51;;;;;;;9.95;6.57;;;3.70;99.90;;;;;;4939580;28;90172;-74
2021/12/19 08:32:17;;;;;;;10.20;5.90;;;3.70;99.90;;;;;;4921752;28;89497;-74
2021/12/19 08:34:42;;;;;;;10.82;6.65;;;3.70;99.90;;;;;;4939459;28;89797;-74
2021/12/19 08:37:08;;;;;;;9.98;6.18;;;3.60;99.90;;;;;;4921449;28;91399;-74
2021/12/19 08:39:34;;;;;;;10.13;6.47;;;3.70;99.90;;;;;;4921487;28;92721;-74
2021/12/19 08:42:00;;;;;;;9.85;6.60;;;3.70;99.90;;;;;;4938828;28;90626;-74
2021/12/19 08:44:26;;;;;;;10.40;6.85;;;3.70;99.90;;;;;;4939166;28;89660;-74
2021/12/19 08:46:52;;;;;;;11.93;7.30;;;3.80;99.90;;;;;;4938964;28;90381;-75
2021/12/19 08:49:18;;;;;;;9.90;6.97;;;3.80;99.90;;;;;;4939203;28;89162;-75
2021/12/19 08:51:45;;;;;;;11.48;6.78;;;3.80;99.90;;;;;;4938916;28;89548;-74
2021/12/19 08:54:11;;;;;;;10.90;7.30;;;3.80;99.90;;;;;;4921207;28;91462;-74
2021/12/19 08:56:36;;;;;;;11.85;7.80;;;3.80;99.90;;;;;;4938986;28;89901;-75
2021/12/19 08:59:03;;;;;;;12.02;7.80;;;3.80;99.90;;;;;;4939412;28;89722;-75
2021/12/19 09:01:29;;;;;;;10.38;7.40;;;3.80;99.90;;;;;;4938506;28;89365;-75
2021/12/19 09:03:54;;;;;;;10.60;7.15;;;3.90;99.90;;;;;;4938777;28;89240;-75
2021/12/19 09:06:21;;;;;;;11.98;7.57;;;3.80;99.90;;;;;;4937786;28;92036;-75
2021/12/19 09:08:46;;;;;;;12.48;7.45;;;3.80;99.90;;;;;;4938702;28;91616;-75
2021/12/19 09:11:12;;;;;;;10.80;7.22;;;3.90;99.90;;;;;;4938940;28;89430;-75
2021/12/19 09:13:38;;;;;;;11.55;7.50;;;3.90;99.90;;;;;;4920985;28;91914;-75
2021/12/19 09:16:04;;;;;;;11.48;7.75;;;3.90;99.90;;;;;;4921032;28;91898;-75
2021/12/19 09:18:30;;;;;;;11.68;7.18;;;4.00;99.90;;;;;;4938572;28;89659;-75
2021/12/19 09:20:55;;;;;;;11.63;7.50;;;4.00;99.90;;;;;;4920930;28;89408;-75
2021/12/19 09:23:21;;;;;;;13.68;7.82;;;4.00;99.90;;;;;;4921404;28;91977;-75
2021/12/19 09:25:48;;;;;;;11.70;7.45;;;4.00;99.90;;;;;;4938410;28;89412;-74
2021/12/19 09:28:14;;;;;;;11.70;7.47;;;4.00;99.90;;;;;;4938594;28;89862;-75
2021/12/19 09:30:40;;;;;;;12.50;8.25;;;4.10;99.90;;;;;;4961138;28;90299;-75
2021/12/19 09:33:06;;;;;;;12.25;8.07;;;4.10;99.90;;;;;;4977833;28;90238;-75
2021/12/19 09:35:32;;;;;;;12.73;7.85;;;4.10;99.90;;;;;;4977282;28;90503;-75
2021/12/19 09:37:58;;;;;;;13.43;8.25;;;4.20;99.90;;;;;;4969142;28;89642;-75
2021/12/19 09:40:32;;;;;;;13.25;8.98;;;4.20;99.90;;;;;;4942213;28;89229;-75
2021/12/19 09:43:02;;;;;;;12.05;8.07;;;4.20;99.90;;;;;;4961227;28;90212;-75
2021/12/19 09:45:29;;;;;;;14.10;8.32;;;4.30;99.90;;;;;;4940056;28;91088;-75
2021/12/19 09:47:56;;;;;;;13.40;8.20;;;4.30;99.90;;;;;;4941149;28;91076;-75
2021/12/19 09:50:21;;;;;;;13.43;8.20;;;4.30;99.90;;;;;;4962144;28;89239;-75
2021/12/19 09:52:49;;;;;;;14.48;8.40;;;4.30;99.90;;;;;;4961361;28;89885;-79
2021/12/19 09:55:19;;;;;;;13.77;8.57;;;4.30;99.90;;;;;;4960737;28;91383;-76
2021/12/19 09:57:45;;;;;;;14.43;8.15;;;4.30;99.90;;;;;;4960496;28;89304;-76
2021/12/19 10:00:11;;;;;;;15.95;8.77;;;4.40;99.90;;;;;;4962218;28;89912;-76
2021/12/19 10:02:37;;;;;;;12.73;8.43;;;4.40;99.90;;;;;;4961040;28;89550;-76
2021/12/19 10:05:26;;;;;;;13.25;8.63;;;4.50;99.90;;;;;;4960971;28;90516;-76
2021/12/19 10:07:54;;;;;;;12.38;8.55;;;4.50;99.90;;;;;;4961299;28;89330;-80
2021/12/19 10:10:33;;;;;;;11.70;8.10;;;4.50;99.90;;;;;;4962205;28;89740;-77
2021/12/19 10:12:59;;;;;;;14.68;9.20;;;4.40;99.90;;;;;;4961418;28;90271;-77
2021/12/19 10:15:33;;;;;;;13.27;9.35;;;4.50;99.90;;;;;;4942948;28;92301;-75
2021/12/19 10:18:03;;;;;;;14.65;10.23;;;4.50;99.90;;;;;;4961296;28;89579;-77
2021/12/19 10:20:40;;;;;;;15.98;10.50;;;4.50;99.90;;;;;;4942110;28;90656;-76
2021/12/19 10:23:11;;;;;;;17.58;10.70;;;4.50;99.90;;;;;;4942111;28;91279;-76
2021/12/19 10:25:36;;;;;;;18.02;10.93;;;4.50;99.90;;;;;;4959444;28;90229;-76
2021/12/19 10:28:09;;;;;;;16.20;10.40;;;4.50;99.90;;;;;;4960291;28;89563;-76
2021/12/19 10:30:46;;;;;;;17.35;10.80;;;4.40;99.90;;;;;;4960022;28;89166;-75
2021/12/19 10:33:23;;;;;;;17.15;10.48;;;4.40;99.90;;;;;;4960284;28;90157;-75
2021/12/19 10:35:53;;;;;;;15.82;10.93;;;4.40;99.90;;;;;;4959582;28;90407;-75
2021/12/19 10:38:24;;;;;;;18.30;11.77;;;4.40;99.90;;;;;;4960511;28;89751;-75
2021/12/19 10:40:54;;;;;;;19.67;11.98;;;4.40;99.90;;;;;;4960433;28;89249;-79
2021/12/19 10:43:21;;;;;;;16.17;10.82;;;4.50;99.90;;;;;;4975792;28;89603;-74
2021/12/19 10:45:51;;;;;;;18.67;11.63;;;4.50;99.90;;;;;;4978695;28;91091;-78
2021/12/19 10:48:34;;;;;;;15.63;10.05;;;4.40;99.90;;;;;;4978771;28;90595;-75
2021/12/19 10:51:09;;;;;;;20.77;12.40;;;4.40;99.90;;;;;;4961396;28;89397;-75
2021/12/19 10:53:54;;;;;;;16.95;11.13;;;4.40;99.90;;;;;;4979206;28;89182;-75
2021/12/19 10:56:21;;;;;;;18.50;11.88;;;4.40;99.90;;;;;;4963698;28;90426;-76
2021/12/19 10:58:55;;;;;;;17.77;11.02;;;4.40;99.90;;;;;;4956736;28;92766;-76
2021/12/19 11:01:20;;;;;;;18.90;12.18;;;4.40;99.90;;;;;;4978820;28;89168;-76
2021/12/19 11:03:59;;;;;;;17.85;11.55;;;4.40;99.90;;;;;;4961198;28;90747;-76
2021/12/19 11:06:32;;;;;;;18.05;11.82;;;4.40;99.90;;;;;;4979483;28;90053;-75
2021/12/19 11:08:59;;;;;;;17.80;11.50;;;4.40;99.90;;;;;;4961248;28;91868;-75
2021/12/19 11:11:32;;;;;;;18.63;11.55;;;4.40;99.90;;;;;;4978506;28;90298;-75
2021/12/19 11:13:59;;;;;;;18.92;11.07;;;4.40;99.90;;;;;;4979325;28;89407;-74
2021/12/19 11:16:25;;;;;;;17.90;10.98;;;4.30;99.90;;;;;;4960588;28;91010;-75
2021/12/19 11:18:50;;;;;;;19.45;11.68;;;4.30;99.90;;;;;;4961120;28;91906;-74
2021/12/19 11:21:18;;;;;;;21.02;12.55;;;4.30;99.90;;;;;;4959601;28;89263;-74
2021/12/19 11:23:44;;;;;;;15.90;9.93;;;4.30;99.90;;;;;;4959268;28;89462;-75
2021/12/19 11:26:10;;;;;;;18.05;11.13;;;4.30;99.90;;;;;;4959823;28;90258;-74
2021/12/19 11:28:37;;;;;;;16.58;10.80;;;4.30;99.90;;;;;;4959738;28;90201;-76
2021/12/19 11:31:03;;;;;;;19.42;11.38;;;4.30;99.90;;;;;;4941434;28;89380;-74
2021/12/19 11:33:57;;;;;;;18.00;11.52;;;4.30;99.90;;;;;;4959134;28;89366;-74
2021/12/19 11:36:24;;;;;;;19.88;11.55;;;4.30;99.90;;;;;;4958750;28;90183;-74
2021/12/19 11:38:51;;;;;;;19.00;11.57;;;4.40;99.90;;;;;;4959137;28;91095;-77
2021/12/19 11:41:17;;;;;;;19.60;12.40;;;4.30;99.90;;;;;;4962556;28;89378;-75
2021/12/19 11:43:44;;;;;;;17.60;11.02;;;4.30;99.90;;;;;;4971148;28;89736;-76
2021/12/19 11:46:23;;;;;;;18.77;12.13;;;4.30;99.90;;;;;;4969392;28;90389;-73
2021/12/19 11:49:09;;;;;;;17.55;11.80;;;4.40;99.90;;;;;;4962099;28;89428;-73
2021/12/19 11:51:35;;;;;;;20.38;12.85;;;4.40;99.90;;;;;;4950873;28;89251;-74
2021/12/19 11:54:18;;;;;;;21.85;12.93;;;4.40;99.90;;;;;;4968950;28;88950;-75
2021/12/19 11:57:09;;;;;;;19.23;12.55;;;4.30;99.90;;;;;;4973757;28;90643;-79
2021/12/19 11:59:38;;;;;;;19.35;12.18;;;4.40;99.90;;;;;;4950592;28;89937;-73
2021/12/19 12:02:33;;;;;;;20.25;11.20;;;4.40;99.90;;;;;;4967496;28;90214;-75
2021/12/19 12:05:21;;;;;;;20.55;12.43;;;4.30;99.90;;;;;;4939570;28;97989;-78
2021/12/19 12:08:07;;;;;;;23.05;13.27;;;4.30;99.90;;;;;;4965762;28;89828;-75
2021/12/19 12:10:48;;;;;;;20.17;12.48;;;4.30;99.90;;;;;;4932399;28;91602;-74
2021/12/19 12:13:24;;;;;;;19.90;11.88;;;4.40;99.90;;;;;;4974408;28;89247;-75
2021/12/19 12:15:53;;;;;;;17.35;11.07;;;4.40;99.90;;;;;;4965644;28;90069;-76
2021/12/19 12:18:55;;;;;;;17.48;10.75;;;4.30;99.90;;;;;;4966784;28;89549;-76
2021/12/19 12:21:28;;;;;;;17.60;10.15;;;4.30;99.90;;;;;;4915469;28;90178;-75
2021/12/19 12:24:00;;;;;;;17.42;10.38;;;4.30;99.90;;;;;;4969361;28;89295;-73
2021/12/19 12:26:34;;;;;;;16.35;10.05;;;4.30;99.90;;;;;;4970691;28;89381;-74
2021/12/19 12:29:00;;;;;;;21.48;12.38;;;4.20;99.90;;;;;;4960863;28;91341;-75
2021/12/19 12:31:27;;;;;;;18.00;10.82;;;4.30;99.90;;;;;;4972892;28;91293;-74
2021/12/19 12:33:54;;;;;;;15.95;9.75;;;4.20;99.90;;;;;;4966001;28;89243;-75
2021/12/19 12:36:20;;;;;;;17.70;10.38;;;4.30;99.90;;;;;;4966435;28;89721;-75
2021/12/19 12:38:49;;;;;;;16.02;10.30;;;4.30;99.90;;;;;;4973145;28;90588;-75
2021/12/19 12:44:08;;;;;;;22.70;13.95;;;4.30;99.90;;;;;;4939622;28;89569;-75
2021/12/19 12:46:34;;;;;;;19.30;11.40;;;4.30;99.90;;;;;;4956184;28;90212;-75
2021/12/19 12:49:03;;;;;;;23.05;14.48;;;4.30;99.90;;;;;;4957895;28;90556;-74
2021/12/19 12:51:36;;;;;;;30.80;20.35;;;4.30;99.90;;;;;;4957458;28;90043;-74
2021/12/19 12:54:04;;;;;;;24.77;14.90;;;4.40;99.90;;;;;;4958085;28;90193;-75
2021/12/19 12:56:36;;;;;;;14.60;9.45;;;4.40;99.90;;;;;;4943369;28;92639;-76
2021/12/19 12:59:03;;;;;;;14.68;9.63;;;4.30;99.90;;;;;;4968622;28;90246;-74
2021/12/19 13:01:38;;;;;;;14.88;9.48;;;4.30;99.90;;;;;;4964488;28;89510;-76
2021/12/19 13:04:29;;;;;;;12.25;8.63;;;4.30;99.90;;;;;;4940748;28;89247;-74
2021/12/19 13:06:55;;;;;;;14.10;8.98;;;4.20;99.90;;;;;;4938371;28;91297;-74
2021/12/19 13:09:20;;;;;;;13.55;8.77;;;4.20;99.90;;;;;;4958372;28;89288;-74
2021/12/19 13:11:49;;;;;;;15.60;9.55;;;4.20;99.90;;;;;;4958653;28;88991;-74
2021/12/19 13:14:22;;;;;;;14.50;9.30;;;4.20;99.90;;;;;;4958186;28;89624;-74
2021/12/19 13:16:50;;;;;;;12.90;8.57;;;4.20;99.90;;;;;;4958510;28;90134;-74
2021/12/19 13:19:40;;;;;;;13.60;8.88;;;4.20;99.90;;;;;;4957802;28;91413;-74
2021/12/19 13:22:20;;;;;;;13.57;8.63;;;4.20;99.90;;;;;;4957243;28;90891;-74
2021/12/19 13:24:48;;;;;;;13.13;8.57;;;4.10;99.90;;;;;;4940168;28;89329;-74
2021/12/19 13:27:19;;;;;;;14.50;8.70;;;4.20;99.90;;;;;;4958439;28;90160;-74
2021/12/19 13:30:01;;;;;;;14.30;8.77;;;4.20;99.90;;;;;;4955400;28;89635;-74
2021/12/19 13:32:33;;;;;;;13.05;8.30;;;4.20;99.90;;;;;;4949717;28;89230;-74
2021/12/19 13:35:01;;;;;;;14.38;8.95;;;4.10;99.90;;;;;;4933789;28;89369;-74
2021/12/19 13:37:31;;;;;;;15.02;10.07;;;4.10;99.90;;;;;;4948562;28;89951;-74
2021/12/19 13:40:10;;;;;;;13.50;9.55;;;4.10;99.90;;;;;;4937547;28;90400;-74
2021/12/19 13:42:40;;;;;;;15.65;10.23;;;4.10;99.90;;;;;;4937799;28;89518;-74
2021/12/19 13:45:30;;;;;;;15.52;9.93;;;4.20;99.90;;;;;;4973993;28;90351;-73
2021/12/19 13:47:58;;;;;;;14.68;9.57;;;4.20;99.90;;;;;;4967254;28;89286;-74
2021/12/19 13:50:24;;;;;;;17.02;10.15;;;4.20;99.90;;;;;;4957196;28;89450;-74
2021/12/19 13:52:50;;;;;;;15.35;10.13;;;4.20;99.90;;;;;;4972700;28;90190;-74
2021/12/19 13:55:16;;;;;;;17.50;10.13;;;4.20;99.90;;;;;;4953942;28;89433;-74
2021/12/19 13:57:44;;;;;;;18.75;10.82;;;4.20;99.90;;;;;;4964276;28;90467;-73
2021/12/19 14:00:26;;;;;;;24.92;13.70;;;4.10;99.90;;;;;;4976663;28;89848;-74
2021/12/19 14:02:52;;;;;;;19.27;12.05;;;4.10;99.90;;;;;;4960642;28;90308;-74
2021/12/19 14:05:40;;;;;;;20.17;11.45;;;4.20;99.90;;;;;;4942073;28;89400;-73
2021/12/19 14:08:29;;;;;;;20.73;13.15;;;4.10;99.90;;;;;;4958347;28;89782;-74
2021/12/19 14:11:03;;;;;;;22.42;13.25;;;4.10;99.90;;;;;;4958164;28;92247;-74
2021/12/19 14:13:34;;;;;;;22.40;14.07;;;4.10;99.90;;;;;;4956764;28;89856;-74
2021/12/19 14:16:02;;;;;;;20.48;12.85;;;4.10;99.90;;;;;;4957001;28;89429;-74
2021/12/19 14:18:40;;;;;;;23.15;13.80;;;4.20;99.90;;;;;;4970271;28;89817;-74
2021/12/19 14:21:39;;;;;;;22.55;12.85;;;4.20;99.90;;;;;;4973697;28;89865;-74
2021/12/19 14:24:31;;;;;;;21.77;13.70;;;4.20;99.90;;;;;;4956380;28;89301;-74
2021/12/19 14:27:25;;;;;;;25.67;13.60;;;4.20;99.90;;;;;;4957959;28;89281;-74
2021/12/19 14:29:59;;;;;;;22.65;13.60;;;4.20;99.90;;;;;;4947094;28;90063;-74
2021/12/19 14:32:27;;;;;;;25.23;15.07;;;4.20;99.90;;;;;;4962949;28;89545;-74
2021/12/19 14:35:05;;;;;;;23.33;15.10;;;4.30;99.90;;;;;;4958541;28;89881;-74
2021/12/19 14:37:32;;;;;;;23.67;15.05;;;4.20;99.90;;;;;;4965359;28;90205;-74
2021/12/19 14:40:11;;;;;;;26.20;15.38;;;4.20;99.90;;;;;;4978620;28;89572;-74
2021/12/19 14:42:38;;;;;;;24.88;15.15;;;4.20;99.90;;;;;;4978895;28;89315;-77
2021/12/19 14:45:11;;;;;;;28.50;16.67;;;4.20;99.90;;;;;;4979031;28;89318;-75
2021/12/19 14:47:42;;;;;;;25.05;15.05;;;4.20;99.90;;;;;;4979230;28;89277;-75
2021/12/19 14:50:21;;;;;;;27.52;16.70;;;4.10;99.90;;;;;;4979368;28;90763;-74
2021/12/19 14:53:22;;;;;;;26.38;16.17;;;4.10;99.90;;;;;;4979308;28;89276;-76
2021/12/19 14:55:52;;;;;;;29.35;16.70;;;4.10;99.90;;;;;;4965298;28;90262;-76
2021/12/19 14:58:19;;;;;;;27.45;15.48;;;4.10;99.90;;;;;;4979074;28;89243;-75
2021/12/19 15:00:49;;;;;;;29.80;17.60;;;4.20;99.90;;;;;;4978598;28;90352;-75
2021/12/19 15:03:14;;;;;;;29.92;16.58;;;4.20;99.90;;;;;;4978452;28;90794;-76
2021/12/19 15:05:42;;;;;;;29.35;18.17;;;4.10;99.90;;;;;;4978822;28;90893;-75
2021/12/19 15:08:12;;;;;;;39.92;23.70;;;4.20;99.90;;;;;;4978956;28;89367;-74
2021/12/19 15:10:38;;;;;;;30.25;18.35;;;4.20;99.90;;;;;;4978984;28;89707;-74
2021/12/19 15:13:04;;;;;;;31.25;18.65;;;4.10;99.90;;;;;;4978967;28;90570;-75
2021/12/19 15:15:30;;;;;;;29.38;17.65;;;4.10;99.90;;;;;;4978879;28;90274;-76
2021/12/19 15:17:55;;;;;;;29.60;17.08;;;4.20;99.90;;;;;;4961316;28;89431;-75
2021/12/19 15:20:21;;;;;;;32.70;19.20;;;4.10;99.90;;;;;;4979152;28;88919;-75
2021/12/19 15:22:46;;;;;;;30.95;17.63;;;4.20;99.90;;;;;;4978743;28;89244;-75
2021/12/19 15:25:12;;;;;;;32.08;18.85;;;4.10;99.90;;;;;;4978573;28;90174;-74
2021/12/19 15:27:42;;;;;;;36.58;19.48;;;4.10;99.90;;;;;;4978393;28;90303;-74
2021/12/19 15:30:09;;;;;;;32.47;18.00;;;4.10;99.90;;;;;;4978577;28;89476;-74
2021/12/19 15:32:34;;;;;;;36.70;20.90;;;4.10;99.90;;;;;;4960690;28;92341;-75
2021/12/19 15:35:03;;;;;;;32.22;19.55;;;4.20;99.90;;;;;;4960218;28;92072;-75
2021/12/19 15:37:28;;;;;;;32.67;18.88;;;4.10;99.90;;;;;;4978403;28;89293;-75
2021/12/19 15:39:54;;;;;;;32.42;18.77;;;4.10;99.90;;;;;;4960729;28;89760;-75
2021/12/19 15:42:19;;;;;;;37.33;22.55;;;4.10;99.90;;;;;;4955848;28;90384;-75
2021/12/19 15:44:45;;;;;;;35.00;19.52;;;4.10;99.90;;;;;;4931639;28;94148;-75
2021/12/19 15:47:10;;;;;;;34.92;20.33;;;4.10;99.90;;;;;;4944075;28;89333;-75
2021/12/19 15:49:36;;;;;;;33.30;18.60;;;4.10;99.90;;;;;;4939388;28;90306;-75
2021/12/19 15:52:02;;;;;;;34.90;20.38;;;4.10;99.90;;;;;;4942203;28;92140;-75
2021/12/19 15:54:30;;;;;;;41.38;26.13;;;4.10;99.90;;;;;;4947732;28;92252;-75
2021/12/19 15:56:59;;;;;;;34.22;19.40;;;4.00;99.90;;;;;;4949595;28;89386;-75
2021/12/19 15:59:30;;;;;;;36.38;20.63;;;4.10;99.90;;;;;;4948527;28;89345;-75
2021/12/19 16:01:56;;;;;;;38.55;22.20;;;4.00;99.90;;;;;;4946457;28;91810;-75
2021/12/19 16:04:22;;;;;;;35.15;18.27;;;4.00;99.90;;;;;;4952478;28;89291;-75
2021/12/19 16:06:48;;;;;;;34.38;19.10;;;4.00;99.90;;;;;;4952195;28;89342;-75
2021/12/19 16:09:14;;;;;;;37.53;19.92;;;4.00;99.90;;;;;;4951278;28;91375;-75
2021/12/19 16:11:39;;;;;;;51.72;29.73;;;4.00;99.90;;;;;;4950495;28;90284;-74
2021/12/19 16:14:05;;;;;;;40.00;22.70;;;4.00;99.90;;;;;;4949920;28;89304;-75
2021/12/19 16:16:30;;;;;;;39.08;21.20;;;4.00;99.90;;;;;;4946913;28;90373;-75
2021/12/19 16:18:56;;;;;;;35.40;19.77;;;4.00;99.90;;;;;;4943758;28;89282;-75
2021/12/19 16:21:22;;;;;;;38.97;22.00;;;4.00;99.90;;;;;;4938639;28;89317;-75
2021/12/19 16:23:47;;;;;;;36.63;20.85;;;4.00;99.90;;;;;;4937928;28;90833;-76
2021/12/19 16:26:13;;;;;;;38.05;22.20;;;4.00;99.90;;;;;;4939028;28;89616;-75
2021/12/19 16:28:39;;;;;;;33.97;18.75;;;4.00;99.90;;;;;;4938694;28;90234;-75
2021/12/19 16:31:04;;;;;;;36.58;19.20;;;3.90;99.90;;;;;;4920913;28;93162;-75
2021/12/19 16:33:30;;;;;;;37.83;20.23;;;4.00;99.90;;;;;;4939079;28;89820;-76
2021/12/19 16:35:56;;;;;;;37.10;19.92;;;4.00;99.90;;;;;;4938909;28;89628;-75
2021/12/19 16:38:21;;;;;;;36.15;19.15;;;3.90;99.90;;;;;;4952403;28;89714;-75
2021/12/19 16:40:49;;;;;;;35.65;19.35;;;3.90;99.90;;;;;;4948188;28;90863;-75
2021/12/19 16:43:30;;;;;;;37.65;19.60;;;3.90;99.90;;;;;;4946733;28;90087;-75
2021/12/19 16:46:07;;;;;;;37.42;20.40;;;3.90;99.90;;;;;;4940474;28;89274;-76
2021/12/19 16:48:36;;;;;;;37.88;20.30;;;4.00;99.90;;;;;;4958130;28;89926;-76
2021/12/19 16:51:03;;;;;;;36.78;19.65;;;3.90;99.90;;;;;;4957202;28;90307;-75
2021/12/19 16:53:31;;;;;;;34.92;19.05;;;3.90;99.90;;;;;;4967316;28;90337;-76
2021/12/19 16:55:57;;;;;;;37.75;20.15;;;3.90;99.90;;;;;;4943346;28;89460;-76
2021/12/19 16:58:23;;;;;;;38.80;19.98;;;3.90;99.90;;;;;;4938265;28;90218;-75
2021/12/19 17:00:50;;;;;;;33.38;19.08;;;3.90;99.90;;;;;;4972935;28;89283;-74
2021/12/19 17:03:17;;;;;;;35.08;19.08;;;3.90;99.90;;;;;;4978033;28;89186;-76
2021/12/19 17:05:43;;;;;;;36.58;19.30;;;3.90;99.90;;;;;;4959893;28;90212;-74
2021/12/19 17:08:08;;;;;;;62.22;29.33;;;3.90;99.90;;;;;;4977638;28;89453;-74
2021/12/19 17:10:34;;;;;;;39.67;21.45;;;3.90;99.90;;;;;;4959982;28;91664;-76
2021/12/19 17:13:02;;;;;;;39.50;19.88;;;3.90;99.90;;;;;;4952850;28;92435;-75
2021/12/19 17:15:30;;;;;;;35.58;19.15;;;3.90;99.90;;;;;;4965993;28;89380;-77
2021/12/19 17:17:56;;;;;;;36.97;19.50;;;3.90;99.90;;;;;;4947674;28;91518;-75
2021/12/19 17:20:24;;;;;;;33.72;17.25;;;3.90;99.90;;;;;;4973096;28;89154;-75
2021/12/19 17:22:50;;;;;;;33.58;18.17;;;3.90;99.90;;;;;;4943686;28;91677;-75
2021/12/19 17:25:16;;;;;;;38.10;19.35;;;3.90;99.90;;;;;;4969987;28;90120;-75
2021/12/19 17:27:42;;;;;;;38.47;20.05;;;3.90;99.90;;;;;;4957466;28;89726;-74
2021/12/19 17:30:10;;;;;;;36.25;19.65;;;3.90;99.90;;;;;;4970261;28;91245;-74
2021/12/19 17:32:36;;;;;;;36.88;20.27;;;3.90;99.90;;;;;;4975691;28;89579;-79
2021/12/19 17:35:03;;;;;;;35.67;19.15;;;3.90;99.90;;;;;;4961150;28;89242;-76
2021/12/19 17:37:30;;;;;;;33.83;18.38;;;3.90;99.90;;;;;;4968844;28;89322;-75
2021/12/19 17:40:04;;;;;;;36.25;19.05;;;3.90;99.90;;;;;;4939262;28;91433;-76
2021/12/19 17:42:30;;;;;;;36.70;19.15;;;3.90;99.90;;;;;;4957755;28;89239;-76
2021/12/19 17:44:55;;;;;;;36.15;19.55;;;4.00;99.90;;;;;;4956978;28;89328;-74
2021/12/19 17:47:22;;;;;;;36.13;19.40;;;4.00;99.90;;;;;;4957486;28;89689;-74
2021/12/19 17:49:49;;;;;;;33.95;18.63;;;4.00;99.90;;;;;;4957047;28;89450;-75
2021/12/19 17:52:14;;;;;;;34.20;18.73;;;4.00;99.90;;;;;;4957225;28;89273;-75
2021/12/19 17:54:40;;;;;;;36.58;19.60;;;3.90;99.90;;;;;;4974242;28;90346;-75
2021/12/19 17:57:05;;;;;;;34.25;18.77;;;4.00;99.90;;;;;;4971295;28;89770;-75
2021/12/19 17:59:31;;;;;;;34.20;18.83;;;4.00;99.90;;;;;;4965596;28;89320;-75